Time;durP1;ratioP1;P1;durP2;ratioP2;P2;SDS_P1;SDS_P2;PMS_P1;PMS_P2;Temp;Humidity;BMP_temperature;BMP_pressure;BME280_temperature;BME280_humidity;BME280_pressure;Samples;Min_cycle;Max_cycle;Signal;HPM_P1;HPM_P2
2023/02/08 00:01:54;;;;;;;;;;;;;;;;;;5050347;28;19913;-86
2023/02/08 00:04:19;;;;;;;;;;;;;;;;;;5067564;28;20258;-86
2023/02/08 00:06:44;;;;;;;;;;;;;;;;;;5060535;28;19916;-87
2023/02/08 00:09:09;;;;;;;;;;;;;;;;;;5062369;28;19920;-86
2023/02/08 00:11:34;;;;;;;;;;;;;;;;;;5052695;28;20334;-84
2023/02/08 00:13:59;;;;;;;;;;;;;;;;;;5058847;28;19919;-85
2023/02/08 00:16:24;;;;;;;;;;;;;;;;;;5049927;28;19935;-86
2023/02/08 00:18:50;;;;;;;;;;;;;;;;;;5059943;28;19913;-86
2023/02/08 00:21:15;;;;;;;;;;;;;;;;;;5049035;28;19920;-85
2023/02/08 00:23:40;;;;;;;;;;;;;;;;;;5050201;28;19916;-86
2023/02/08 00:26:05;;;;;;;;;;;;;;;;;;5046146;28;19913;-85
2023/02/08 00:28:30;;;;;;;;;;;;;;;;;;5058467;28;19963;-86
2023/02/08 00:30:55;;;;;;;;;;;;;;;;;;5050648;28;19916;-86
2023/02/08 00:33:20;;;;;;;;;;;;;;;;;;5049763;28;19966;-87
2023/02/08 00:35:46;;;;;;;;;;;;;;;;;;5055765;28;19913;-86
2023/02/08 00:38:11;;;;;;;;;;;;;;;;;;5041278;28;20297;-86
2023/02/08 00:40:36;;;;;;;;;;;;;;;;;;5054812;28;20015;-85
2023/02/08 00:43:01;;;;;;;;;;;;;;;;;;5045987;28;19921;-86
2023/02/08 00:45:26;;;;;;;;;;;;;;;;;;5042155;28;19948;-86
2023/02/08 00:47:52;;;;;;;;;;;;;;;;;;5063553;28;19920;-86
2023/02/08 00:50:17;;;;;;;;;;;;;;;;;;5057787;28;20046;-86
2023/02/08 00:52:42;;;;;;;;;;;;;;;;;;5055435;28;19969;-84
2023/02/08 00:55:07;;;;;;;;;;;;;;;;;;5060924;28;19919;-88
2023/02/08 00:57:32;;;;;;;;;;;;;;;;;;5056703;28;19937;-85
2023/02/08 00:59:57;;;;;;;;;;;;;;;;;;5078477;28;20011;-87
2023/02/08 01:02:22;;;;;;;;;;;;;;;;;;5057308;28;19920;-86
2023/02/08 01:04:48;;;;;;;;;;;;;;;;;;5045180;28;19913;-85
2023/02/08 01:07:13;;;;;;;;;;;;;;;;;;5063233;28;20276;-84
2023/02/08 01:09:38;;;;;;;;;;;;;;;;;;5053688;28;20349;-86
2023/02/08 01:12:03;;;;;;;;;;;;;;;;;;5046809;28;19916;-86
2023/02/08 01:14:28;;;;;;;;;;;;;;;;;;5060499;28;19913;-85
2023/02/08 01:16:53;;;;;;;;;;;;;;;;;;5061332;28;20367;-87
2023/02/08 01:19:19;;;;;;;;;;;;;;;;;;5055630;28;20344;-86
2023/02/08 01:21:44;;;;;;;;;;;;;;;;;;5073863;28;19966;-86
2023/02/08 01:24:09;;;;;;;;;;;;;;;;;;5063743;28;19924;-87
2023/02/08 01:26:34;;;;;;;;;;;;;;;;;;5064795;28;20339;-86
2023/02/08 01:28:59;;;;;;;;;;;;;;;;;;5068624;28;19958;-87
2023/02/08 01:31:24;;;;;;;;;;;;;;;;;;5055033;28;19968;-87
2023/02/08 01:33:49;;;;;;;;;;;;;;;;;;5063062;28;19913;-86
2023/02/08 01:36:15;;;;;;;;;;;;;;;;;;5060996;28;19982;-86
2023/02/08 01:38:40;;;;;;;;;;;;;;;;;;5074043;28;20061;-86
2023/02/08 01:41:05;;;;;;;;;;;;;;;;;;5051120;28;19912;-86
2023/02/08 01:43:30;;;;;;;;;;;;;;;;;;5059650;28;19952;-86
2023/02/08 01:45:55;;;;;;;;;;;;;;;;;;5045615;28;19913;-85
2023/02/08 01:48:21;;;;;;;;;;;;;;;;;;5063370;28;19912;-86
2023/02/08 01:50:46;;;;;;;;;;;;;;;;;;5057037;28;19913;-85
2023/02/08 01:53:11;;;;;;;;;;;;;;;;;;5062005;28;19994;-83
2023/02/08 01:55:36;;;;;;;;;;;;;;;;;;5062469;28;19952;-86
2023/02/08 01:58:01;;;;;;;;;;;;;;;;;;5062085;28;19917;-87
2023/02/08 02:00:26;;;;;;;;;;;;;;;;;;5066451;28;20325;-86
2023/02/08 02:02:54;;;;;;;;;;;;;;;;;;5056482;28;19919;-87
2023/02/08 02:05:20;;;;;;;;;;;;;;;;;;5046590;28;19913;-87
2023/02/08 02:07:45;;;;;;;;;;;;;;;;;;5045409;28;19920;-86
2023/02/08 02:10:10;;;;;;;;;;;;;;;;;;5054279;28;19921;-87
2023/02/08 02:12:35;;;;;;;;;;;;;;;;;;5051808;28;19913;-84
2023/02/08 02:15:00;;;;;;;;;;;;;;;;;;5060071;28;19913;-87
2023/02/08 02:17:25;;;;;;;;;;;;;;;;;;5067418;28;20008;-85
2023/02/08 02:19:50;;;;;;;;;;;;;;;;;;5056238;28;20361;-85
2023/02/08 02:22:15;;;;;;;;;;;;;;;;;;5057294;28;19917;-84
2023/02/08 02:24:41;;;;;;;;;;;;;;;;;;5047331;28;19924;-86
2023/02/08 02:27:06;;;;;;;;;;;;;;;;;;5061466;28;20250;-87
2023/02/08 02:29:31;;;;;;;;;;;;;;;;;;5063043;28;19917;-87
2023/02/08 02:31:56;;;;;;;;;;;;;;;;;;5047647;28;19919;-86
2023/02/08 02:34:21;;;;;;;;;;;;;;;;;;5060715;28;19962;-86
2023/02/08 02:36:46;;;;;;;;;;;;;;;;;;5061738;28;19920;-86
2023/02/08 02:39:11;;;;;;;;;;;;;;;;;;5062505;28;19916;-86
2023/02/08 02:44:21;;;;;;;;;;;;;;;;;;5046204;28;20360;-87
2023/02/08 02:46:46;;;;;;;;;;;;;;;;;;5053663;28;19956;-86
2023/02/08 02:49:11;;;;;;;;;;;;;;;;;;5049556;28;19947;-85
2023/02/08 02:51:36;;;;;;;;;;;;;;;;;;5063489;28;19913;-85
2023/02/08 02:54:01;;;;;;;;;;;;;;;;;;5048417;28;19960;-84
2023/02/08 02:56:26;;;;;;;;;;;;;;;;;;5067156;28;19916;-85
2023/02/08 02:58:52;;;;;;;;;;;;;;;;;;5058145;28;20372;-85
2023/02/08 03:01:17;;;;;;;;;;;;;;;;;;5058575;28;19959;-86
2023/02/08 03:03:42;;;;;;;;;;;;;;;;;;5062996;28;20388;-86
2023/02/08 03:06:07;;;;;;;;;;;;;;;;;;5065231;28;20237;-86
2023/02/08 03:08:32;;;;;;;;;;;;;;;;;;5070817;28;20447;-87
2023/02/08 03:10:57;;;;;;;;;;;;;;;;;;5044302;28;19913;-86
2023/02/08 03:13:23;;;;;;;;;;;;;;;;;;5054427;28;19998;-87
2023/02/08 03:15:48;;;;;;;;;;;;;;;;;;5059588;28;19908;-85
2023/02/08 03:18:13;;;;;;;;;;;;;;;;;;5061727;28;19951;-84
2023/02/08 03:20:38;;;;;;;;;;;;;;;;;;5051055;28;19921;-86
2023/02/08 03:23:03;;;;;;;;;;;;;;;;;;5056582;28;19969;-86
2023/02/08 03:25:28;;;;;;;;;;;;;;;;;;5059524;28;20369;-85
2023/02/08 03:27:53;;;;;;;;;;;;;;;;;;5055098;28;19954;-85
2023/02/08 03:30:19;;;;;;;;;;;;;;;;;;5059648;28;20010;-84
2023/02/08 03:32:44;;;;;;;;;;;;;;;;;;5060958;28;20489;-85
2023/02/08 03:35:09;;;;;;;;;;;;;;;;;;5058575;28;20004;-84
2023/02/08 03:37:34;;;;;;;;;;;;;;;;;;5058650;28;20437;-82
2023/02/08 03:39:59;;;;;;;;;;;;;;;;;;5055251;28;19917;-84
2023/02/08 03:42:24;;;;;;;;;;;;;;;;;;5047421;28;19952;-81
2023/02/08 03:44:49;;;;;;;;;;;;;;;;;;5044567;28;19909;-85
2023/02/08 03:47:15;;;;;;;;;;;;;;;;;;5052359;28;20309;-83
2023/02/08 03:49:40;;;;;;;;;;;;;;;;;;5067516;28;19912;-84
2023/02/08 03:52:05;;;;;;;;;;;;;;;;;;5053691;28;19913;-84
2023/02/08 03:54:30;;;;;;;;;;;;;;;;;;5067376;28;19915;-84
2023/02/08 03:56:55;;;;;;;;;;;;;;;;;;5054728;28;19924;-85
2023/02/08 03:59:20;;;;;;;;;;;;;;;;;;5061237;28;20424;-85
2023/02/08 04:01:45;;;;;;;;;;;;;;;;;;5054940;28;19916;-85
2023/02/08 04:04:11;;;;;;;;;;;;;;;;;;5050203;28;19913;-84
2023/02/08 04:06:36;;;;;;;;;;;;;;;;;;5071159;28;19912;-86
2023/02/08 04:09:01;;;;;;;;;;;;;;;;;;5054378;28;19975;-85
2023/02/08 04:11:26;;;;;;;;;;;;;;;;;;5046415;28;19921;-86
2023/02/08 04:13:51;;;;;;;;;;;;;;;;;;5049512;28;19956;-86
2023/02/08 04:16:16;;;;;;;;;;;;;;;;;;5056006;28;19924;-86
2023/02/08 04:18:41;;;;;;;;;;;;;;;;;;5060045;28;20413;-85
2023/02/08 04:21:07;;;;;;;;;;;;;;;;;;5055885;28;19943;-84
2023/02/08 04:23:32;;;;;;;;;;;;;;;;;;5060229;28;21377;-86
2023/02/08 04:25:57;;;;;;;;;;;;;;;;;;5060446;28;19935;-86
2023/02/08 04:28:22;;;;;;;;;;;;;;;;;;5040654;28;20347;-85
2023/02/08 04:30:47;;;;;;;;;;;;;;;;;;5058251;28;19913;-86
2023/02/08 04:33:13;;;;;;;;;;;;;;;;;;5052062;28;20011;-86
2023/02/08 04:35:39;;;;;;;;;;;;;;;;;;5051490;28;19936;-86
2023/02/08 04:38:04;;;;;;;;;;;;;;;;;;5048933;28;19928;-86
2023/02/08 04:40:30;;;;;;;;;;;;;;;;;;5058084;28;20068;-86
2023/02/08 04:42:55;;;;;;;;;;;;;;;;;;5051442;28;20304;-86
2023/02/08 04:45:20;;;;;;;;;;;;;;;;;;5052027;28;19963;-86
2023/02/08 04:47:45;;;;;;;;;;;;;;;;;;5053373;28;19912;-86
2023/02/08 04:50:10;;;;;;;;;;;;;;;;;;5054355;28;19913;-86
2023/02/08 04:52:36;;;;;;;;;;;;;;;;;;5057314;28;19920;-86
2023/02/08 04:55:01;;;;;;;;;;;;;;;;;;5051032;28;20059;-86
2023/02/08 04:57:26;;;;;;;;;;;;;;;;;;5054656;28;19920;-85
2023/02/08 04:59:51;;;;;;;;;;;;;;;;;;5074628;28;19913;-86
2023/02/08 05:02:16;;;;;;;;;;;;;;;;;;5055817;28;20361;-84
2023/02/08 05:04:41;;;;;;;;;;;;;;;;;;5061016;28;20428;-86
2023/02/08 05:07:06;;;;;;;;;;;;;;;;;;5052840;28;19917;-85
2023/02/08 05:09:32;;;;;;;;;;;;;;;;;;5058412;28;20341;-83
2023/02/08 05:11:57;;;;;;;;;;;;;;;;;;5061377;28;19912;-84
2023/02/08 05:14:22;;;;;;;;;;;;;;;;;;5049464;28;20369;-84
2023/02/08 05:16:47;;;;;;;;;;;;;;;;;;5062271;28;19925;-85
2023/02/08 05:19:12;;;;;;;;;;;;;;;;;;5064725;28;19913;-86
2023/02/08 05:21:37;;;;;;;;;;;;;;;;;;5054627;28;20003;-85
2023/02/08 05:24:02;;;;;;;;;;;;;;;;;;5053357;28;19923;-84
2023/02/08 05:26:28;;;;;;;;;;;;;;;;;;5054074;28;20368;-83
2023/02/08 05:28:53;;;;;;;;;;;;;;;;;;5061302;28;19928;-85
2023/02/08 05:31:18;;;;;;;;;;;;;;;;;;5048216;28;19924;-85
2023/02/08 05:33:43;;;;;;;;;;;;;;;;;;5053137;28;19956;-84
2023/02/08 05:36:08;;;;;;;;;;;;;;;;;;5064252;28;19923;-85
2023/02/08 05:38:33;;;;;;;;;;;;;;;;;;5054792;28;20479;-86
2023/02/08 05:40:58;;;;;;;;;;;;;;;;;;5046948;28;19916;-85
2023/02/08 05:43:23;;;;;;;;;;;;;;;;;;5050200;28;19994;-84
2023/02/08 05:45:49;;;;;;;;;;;;;;;;;;5060918;28;19916;-90
2023/02/08 05:48:14;;;;;;;;;;;;;;;;;;5058180;28;19921;-88
2023/02/08 05:50:39;;;;;;;;;;;;;;;;;;5057402;28;19916;-85
2023/02/08 05:53:04;;;;;;;;;;;;;;;;;;5051184;28;19924;-82
2023/02/08 05:55:29;;;;;;;;;;;;;;;;;;5063529;28;19920;-85
2023/02/08 05:57:55;;;;;;;;;;;;;;;;;;5052882;28;19912;-84
2023/02/08 06:00:20;;;;;;;;;;;;;;;;;;5045409;28;19920;-83
2023/02/08 06:02:45;;;;;;;;;;;;;;;;;;5056035;28;19920;-86
2023/02/08 06:05:10;;;;;;;;;;;;;;;;;;5058515;28;20340;-85
2023/02/08 06:07:35;;;;;;;;;;;;;;;;;;5045702;28;20353;-83
2023/02/08 06:10:00;;;;;;;;;;;;;;;;;;5044851;28;19916;-83
2023/02/08 06:12:25;;;;;;;;;;;;;;;;;;5046659;28;20352;-83
2023/02/08 06:14:51;;;;;;;;;;;;;;;;;;5034343;28;20423;-84
2023/02/08 06:17:16;;;;;;;;;;;;;;;;;;5044549;28;19962;-84
2023/02/08 06:19:41;;;;;;;;;;;;;;;;;;5055326;28;19920;-83
2023/02/08 06:22:06;;;;;;;;;;;;;;;;;;5044990;28;19920;-83
2023/02/08 06:24:31;;;;;;;;;;;;;;;;;;5050340;28;19925;-81
2023/02/08 06:26:56;;;;;;;;;;;;;;;;;;5052141;28;19913;-81
2023/02/08 06:29:21;;;;;;;;;;;;;;;;;;5050305;28;19970;-83
2023/02/08 06:31:47;;;;;;;;;;;;;;;;;;5049813;28;20285;-82
2023/02/08 06:34:12;;;;;;;;;;;;;;;;;;5050693;28;20472;-82
2023/02/08 06:36:37;;;;;;;;;;;;;;;;;;5049544;28;20438;-82
2023/02/08 06:39:02;;;;;;;;;;;;;;;;;;5048602;28;19912;-82
2023/02/08 06:41:27;;;;;;;;;;;;;;;;;;5049302;28;19976;-82
2023/02/08 06:43:52;;;;;;;;;;;;;;;;;;5063024;28;19958;-82
2023/02/08 06:46:18;;;;;;;;;;;;;;;;;;5055297;28;19913;-82
2023/02/08 06:48:43;;;;;;;;;;;;;;;;;;5057996;28;19986;-83
2023/02/08 06:51:08;;;;;;;;;;;;;;;;;;5050611;28;19917;-83
2023/02/08 06:53:33;;;;;;;;;;;;;;;;;;5051517;28;20479;-83
2023/02/08 06:55:58;;;;;;;;;;;;;;;;;;5049071;28;19920;-82
2023/02/08 06:58:23;;;;;;;;;;;;;;;;;;5048885;28;19987;-82
2023/02/08 07:00:48;;;;;;;;;;;;;;;;;;5065965;28;20057;-82
2023/02/08 07:03:14;;;;;;;;;;;;;;;;;;5063833;28;19927;-83
2023/02/08 07:05:40;;;;;;;;;;;;;;;;;;5054179;28;19932;-83
2023/02/08 07:08:05;;;;;;;;;;;;;;;;;;5049037;28;19913;-83
2023/02/08 07:10:30;;;;;;;;;;;;;;;;;;5048310;28;19913;-83
2023/02/08 07:12:55;;;;;;;;;;;;;;;;;;5052269;28;20015;-82
2023/02/08 07:15:20;;;;;;;;;;;;;;;;;;5046640;28;19963;-82
2023/02/08 07:17:45;;;;;;;;;;;;;;;;;;5065711;28;20036;-82
2023/02/08 07:20:11;;;;;;;;;;;;;;;;;;5054044;28;20396;-82
2023/02/08 07:22:36;;;;;;;;;;;;;;;;;;5051191;28;19948;-81
2023/02/08 07:25:01;;;;;;;;;;;;;;;;;;5054334;28;19917;-82
2023/02/08 07:27:26;;;;;;;;;;;;;;;;;;5045080;28;19913;-82
2023/02/08 07:29:51;;;;;;;;;;;;;;;;;;5050752;28;19908;-82
2023/02/08 07:32:16;;;;;;;;;;;;;;;;;;5049769;28;19909;-82
2023/02/08 07:34:41;;;;;;;;;;;;;;;;;;5049063;28;19948;-82
2023/02/08 07:37:07;;;;;;;;;;;;;;;;;;5046947;28;19917;-82
2023/02/08 07:39:32;;;;;;;;;;;;;;;;;;5052686;28;19927;-82
2023/02/08 07:41:57;;;;;;;;;;;;;;;;;;5051132;28;19927;-81
2023/02/08 07:44:22;;;;;;;;;;;;;;;;;;5050119;28;19909;-82
2023/02/08 07:46:47;;;;;;;;;;;;;;;;;;5051090;28;19944;-82
2023/02/08 07:49:12;;;;;;;;;;;;;;;;;;5049273;28;19908;-82
2023/02/08 07:51:37;;;;;;;;;;;;;;;;;;5049435;28;19920;-83
2023/02/08 07:54:02;;;;;;;;;;;;;;;;;;5052820;28;19908;-83
2023/02/08 07:56:28;;;;;;;;;;;;;;;;;;5050984;28;20360;-82
2023/02/08 07:58:53;;;;;;;;;;;;;;;;;;5034302;28;20365;-83
2023/02/08 08:01:18;;;;;;;;;;;;;;;;;;5046900;28;20387;-83
2023/02/08 08:03:43;;;;;;;;;;;;;;;;;;5050908;28;20162;-83
2023/02/08 08:06:08;;;;;;;;;;;;;;;;;;5044266;28;19999;-83
2023/02/08 08:08:33;;;;;;;;;;;;;;;;;;5046099;28;19913;-82
2023/02/08 08:10:58;;;;;;;;;;;;;;;;;;5045100;28;19913;-82
2023/02/08 08:13:24;;;;;;;;;;;;;;;;;;5041493;28;19917;-82
2023/02/08 08:15:49;;;;;;;;;;;;;;;;;;5048967;28;19913;-81
2023/02/08 08:18:14;;;;;;;;;;;;;;;;;;5049174;28;20284;-83
2023/02/08 08:20:39;;;;;;;;;;;;;;;;;;5033741;28;20286;-82
2023/02/08 08:23:04;;;;;;;;;;;;;;;;;;5052229;28;19959;-83
2023/02/08 08:25:29;;;;;;;;;;;;;;;;;;5051268;28;20284;-83
2023/02/08 08:27:55;;;;;;;;;;;;;;;;;;5050143;28;19915;-82
2023/02/08 08:30:20;;;;;;;;;;;;;;;;;;5049371;28;19909;-82
2023/02/08 08:32:45;;;;;;;;;;;;;;;;;;5049584;28;19913;-83
2023/02/08 08:35:10;;;;;;;;;;;;;;;;;;5068481;28;19908;-81
2023/02/08 08:37:36;;;;;;;;;;;;;;;;;;5065389;28;19951;-83
2023/02/08 08:40:01;;;;;;;;;;;;;;;;;;5046589;28;19924;-82
2023/02/08 08:42:26;;;;;;;;;;;;;;;;;;5048146;28;19968;-82
2023/02/08 08:44:51;;;;;;;;;;;;;;;;;;5046799;28;19925;-84
2023/02/08 08:47:16;;;;;;;;;;;;;;;;;;5049438;28;20003;-83
2023/02/08 08:49:42;;;;;;;;;;;;;;;;;;5042123;28;19913;-82
2023/02/08 08:52:07;;;;;;;;;;;;;;;;;;5034504;28;20365;-81
2023/02/08 08:54:32;;;;;;;;;;;;;;;;;;5051273;28;19986;-82
2023/02/08 08:56:58;;;;;;;;;;;;;;;;;;5046854;28;19978;-81
2023/02/08 08:59:23;;;;;;;;;;;;;;;;;;5047908;28;19912;-82
2023/02/08 09:01:48;;;;;;;;;;;;;;;;;;5047627;28;20156;-81
2023/02/08 09:04:14;;;;;;;;;;;;;;;;;;5049142;28;19975;-82
2023/02/08 09:06:39;;;;;;;;;;;;;;;;;;5042301;28;20262;-82
2023/02/08 09:09:04;;;;;;;;;;;;;;;;;;5042934;28;20438;-82
2023/02/08 09:11:29;;;;;;;;;;;;;;;;;;5059331;28;19912;-82
2023/02/08 09:13:55;;;;;;;;;;;;;;;;;;5047199;28;19949;-82
2023/02/08 09:16:20;;;;;;;;;;;;;;;;;;5047627;28;19909;-83
2023/02/08 09:18:45;;;;;;;;;;;;;;;;;;5049066;28;19921;-82
2023/02/08 09:21:10;;;;;;;;;;;;;;;;;;5047990;28;19913;-82
2023/02/08 09:23:35;;;;;;;;;;;;;;;;;;5048188;28;20021;-83
2023/02/08 09:26:00;;;;;;;;;;;;;;;;;;5049392;28;19913;-82
2023/02/08 09:28:25;;;;;;;;;;;;;;;;;;5049362;28;19909;-81
2023/02/08 09:30:51;;;;;;;;;;;;;;;;;;5047278;28;19970;-84
2023/02/08 09:33:16;;;;;;;;;;;;;;;;;;5047542;28;19908;-82
2023/02/08 09:35:41;;;;;;;;;;;;;;;;;;5030290;28;19913;-82
2023/02/08 09:38:06;;;;;;;;;;;;;;;;;;5050476;28;19921;-82
2023/02/08 09:40:31;;;;;;;;;;;;;;;;;;5048722;28;19927;-82
2023/02/08 09:42:56;;;;;;;;;;;;;;;;;;5053076;28;20747;-82
2023/02/08 09:45:24;;;;;;;;;;;;;;;;;;5051576;28;19915;-82
2023/02/08 09:47:49;;;;;;;;;;;;;;;;;;5050118;28;19913;-82
2023/02/08 09:50:14;;;;;;;;;;;;;;;;;;5035565;28;19909;-82
2023/02/08 09:52:39;;;;;;;;;;;;;;;;;;5048380;28;19963;-82
2023/02/08 09:55:04;;;;;;;;;;;;;;;;;;5051908;28;20379;-82
2023/02/08 09:57:29;;;;;;;;;;;;;;;;;;5055122;28;19917;-82
2023/02/08 09:59:54;;;;;;;;;;;;;;;;;;5051194;28;19916;-80
2023/02/08 10:02:20;;;;;;;;;;;;;;;;;;5055309;28;19924;-82
2023/02/08 10:04:45;;;;;;;;;;;;;;;;;;5051032;28;20289;-82
2023/02/08 10:07:10;;;;;;;;;;;;;;;;;;5056148;28;19962;-81
2023/02/08 10:09:35;;;;;;;;;;;;;;;;;;5050183;28;19913;-82
2023/02/08 10:12:00;;;;;;;;;;;;;;;;;;5044938;28;19909;-81
2023/02/08 10:14:25;;;;;;;;;;;;;;;;;;5056401;28;19913;-82
2023/02/08 10:16:50;;;;;;;;;;;;;;;;;;5054881;28;19975;-83
2023/02/08 10:19:16;;;;;;;;;;;;;;;;;;5054332;28;19913;-82
2023/02/08 10:21:41;;;;;;;;;;;;;;;;;;5054561;28;20357;-82
2023/02/08 10:24:06;;;;;;;;;;;;;;;;;;5050702;28;20383;-82
2023/02/08 10:26:31;;;;;;;;;;;;;;;;;;5054533;28;19984;-82
2023/02/08 10:28:56;;;;;;;;;;;;;;;;;;5054767;28;20392;-82
2023/02/08 10:31:22;;;;;;;;;;;;;;;;;;5052086;28;19971;-82
2023/02/08 10:33:47;;;;;;;;;;;;;;;;;;5056313;28;19917;-83
2023/02/08 10:36:12;;;;;;;;;;;;;;;;;;5052138;28;19919;-82
2023/02/08 10:38:37;;;;;;;;;;;;;;;;;;5052847;28;20420;-82
2023/02/08 10:41:02;;;;;;;;;;;;;;;;;;5043293;28;19927;-82
2023/02/08 10:43:27;;;;;;;;;;;;;;;;;;5049559;28;19970;-82
2023/02/08 10:45:52;;;;;;;;;;;;;;;;;;5054604;28;19915;-82
2023/02/08 10:48:18;;;;;;;;;;;;;;;;;;5052591;28;19967;-82
2023/02/08 10:50:46;;;;;;;;;;;;;;;;;;5050573;28;19955;-82
2023/02/08 10:53:11;;;;;;;;;;;;;;;;;;5050566;28;19920;-83
2023/02/08 10:55:36;;;;;;;;;;;;;;;;;;5056249;28;20631;-82
2023/02/08 10:58:01;;;;;;;;;;;;;;;;;;5051601;28;19965;-83
2023/02/08 11:00:26;;;;;;;;;;;;;;;;;;5052257;28;19955;-82
2023/02/08 11:02:51;;;;;;;;;;;;;;;;;;5050823;28;19908;-83
2023/02/08 11:05:17;;;;;;;;;;;;;;;;;;5052253;28;19920;-82
2023/02/08 11:07:42;;;;;;;;;;;;;;;;;;5055229;28;19913;-83
2023/02/08 11:10:07;;;;;;;;;;;;;;;;;;5048180;28;19920;-84
2023/02/08 11:12:32;;;;;;;;;;;;;;;;;;5053106;28;19963;-83
2023/02/08 11:14:57;;;;;;;;;;;;;;;;;;5048685;28;19958;-83
2023/02/08 11:17:22;;;;;;;;;;;;;;;;;;5053724;28;20016;-83
2023/02/08 11:19:48;;;;;;;;;;;;;;;;;;5054880;28;19954;-83
2023/02/08 11:22:13;;;;;;;;;;;;;;;;;;5052299;28;20376;-83
2023/02/08 11:24:40;;;;;;;;;;;;;;;;;;5053940;28;20011;-83
2023/02/08 11:27:05;;;;;;;;;;;;;;;;;;5049853;28;20024;-83
2023/02/08 11:29:30;;;;;;;;;;;;;;;;;;5053252;28;19964;-82
2023/02/08 11:31:56;;;;;;;;;;;;;;;;;;5052785;28;20359;-83
2023/02/08 11:34:21;;;;;;;;;;;;;;;;;;5053096;28;19959;-83
2023/02/08 11:36:46;;;;;;;;;;;;;;;;;;5051911;28;19921;-82
2023/02/08 11:39:11;;;;;;;;;;;;;;;;;;5045739;28;20265;-83
2023/02/08 11:41:36;;;;;;;;;;;;;;;;;;5049104;28;19962;-82
2023/02/08 11:44:02;;;;;;;;;;;;;;;;;;5049054;28;19920;-83
2023/02/08 11:46:27;;;;;;;;;;;;;;;;;;5055546;28;20069;-83
2023/02/08 11:48:52;;;;;;;;;;;;;;;;;;5049347;28;20003;-83
2023/02/08 11:51:17;;;;;;;;;;;;;;;;;;5047519;28;19923;-83
2023/02/08 11:53:43;;;;;;;;;;;;;;;;;;5047870;28;19909;-84
2023/02/08 11:56:08;;;;;;;;;;;;;;;;;;5049785;28;19909;-83
2023/02/08 11:58:33;;;;;;;;;;;;;;;;;;5052593;28;19963;-83
2023/02/08 12:00:58;;;;;;;;;;;;;;;;;;5068528;28;19909;-83
2023/02/08 12:03:23;;;;;;;;;;;;;;;;;;5069343;28;19989;-83
2023/02/08 12:05:48;;;;;;;;;;;;;;;;;;5046961;28;20281;-83
2023/02/08 12:08:13;;;;;;;;;;;;;;;;;;5035244;28;19914;-83
2023/02/08 12:10:39;;;;;;;;;;;;;;;;;;5047214;28;19917;-83
2023/02/08 12:13:04;;;;;;;;;;;;;;;;;;5047843;28;20376;-84
2023/02/08 12:15:29;;;;;;;;;;;;;;;;;;5047712;28;19916;-83
2023/02/08 12:17:54;;;;;;;;;;;;;;;;;;5040546;28;20019;-83
2023/02/08 12:20:22;;;;;;;;;;;;;;;;;;5048892;28;22955;-83
2023/02/08 12:22:47;;;;;;;;;;;;;;;;;;5045641;28;20388;-83
2023/02/08 12:25:12;;;;;;;;;;;;;;;;;;5050789;28;19921;-83
2023/02/08 12:27:37;;;;;;;;;;;;;;;;;;5050178;28;20012;-83
2023/02/08 12:30:02;;;;;;;;;;;;;;;;;;5036408;28;19936;-82
2023/02/08 12:32:27;;;;;;;;;;;;;;;;;;5047470;28;19909;-83
2023/02/08 12:34:53;;;;;;;;;;;;;;;;;;5049200;28;19944;-84
2023/02/08 12:42:46;;;;;;;;;;;;;;;;;;5044393;28;19921;-84
2023/02/08 12:45:12;;;;;;;;;;;;;;;;;;5037966;28;19908;-84
2023/02/08 12:47:37;;;;;;;;;;;;;;;;;;5048386;28;19912;-84
2023/02/08 12:50:02;;;;;;;;;;;;;;;;;;5044720;28;19939;-84
2023/02/08 12:52:31;;;;;;;;;;;;;;;;;;5049624;28;19912;-83
2023/02/08 12:54:56;;;;;;;;;;;;;;;;;;5049468;28;19912;-83
2023/02/08 12:57:22;;;;;;;;;;;;;;;;;;5047913;28;19917;-83
2023/02/08 12:59:47;;;;;;;;;;;;;;;;;;5048639;28;19915;-83
2023/02/08 13:02:12;;;;;;;;;;;;;;;;;;5043863;28;19983;-83
2023/02/08 13:04:37;;;;;;;;;;;;;;;;;;5055026;28;19913;-83
2023/02/08 13:07:02;;;;;;;;;;;;;;;;;;5045740;28;20005;-84
2023/02/08 13:09:27;;;;;;;;;;;;;;;;;;5044871;28;19922;-83
2023/02/08 13:11:52;;;;;;;;;;;;;;;;;;5046667;28;19968;-83
2023/02/08 13:14:18;;;;;;;;;;;;;;;;;;5050092;28;19917;-83
2023/02/08 13:16:43;;;;;;;;;;;;;;;;;;5053455;28;19924;-82
2023/02/08 13:19:08;;;;;;;;;;;;;;;;;;5050736;28;19915;-85
2023/02/08 13:21:36;;;;;;;;;;;;;;;;;;5050038;28;19909;-86
2023/02/08 13:24:01;;;;;;;;;;;;;;;;;;5048198;28;19920;-86
2023/02/08 13:26:27;;;;;;;;;;;;;;;;;;5050949;28;20429;-84
2023/02/08 13:28:52;;;;;;;;;;;;;;;;;;5065182;28;19908;-85
2023/02/08 13:31:17;;;;;;;;;;;;;;;;;;5051307;28;19909;-83
2023/02/08 13:33:42;;;;;;;;;;;;;;;;;;5049128;28;19938;-85
2023/02/08 13:36:07;;;;;;;;;;;;;;;;;;5050995;28;19971;-85
2023/02/08 13:38:33;;;;;;;;;;;;;;;;;;5050867;28;19974;-85
2023/02/08 13:40:58;;;;;;;;;;;;;;;;;;5048508;28;19966;-84
2023/02/08 13:43:23;;;;;;;;;;;;;;;;;;5048999;28;20323;-85
2023/02/08 13:45:49;;;;;;;;;;;;;;;;;;5049616;28;20364;-84
2023/02/08 13:48:14;;;;;;;;;;;;;;;;;;5050092;28;19916;-84
2023/02/08 13:50:39;;;;;;;;;;;;;;;;;;5049856;28;19913;-84
2023/02/08 13:53:04;;;;;;;;;;;;;;;;;;5049836;28;19920;-84
2023/02/08 13:55:29;;;;;;;;;;;;;;;;;;5048721;28;19928;-84
2023/02/08 13:57:54;;;;;;;;;;;;;;;;;;5049762;28;19923;-85
2023/02/08 14:00:19;;;;;;;;;;;;;;;;;;5049336;28;19913;-83
2023/02/08 14:02:45;;;;;;;;;;;;;;;;;;5050535;28;20004;-85
2023/02/08 14:05:10;;;;;;;;;;;;;;;;;;5048663;28;19952;-84
2023/02/08 14:07:35;;;;;;;;;;;;;;;;;;5047288;28;20243;-84
2023/02/08 14:10:00;;;;;;;;;;;;;;;;;;5046634;28;20304;-84
2023/02/08 14:12:25;;;;;;;;;;;;;;;;;;5050119;28;20351;-83
2023/02/08 14:14:50;;;;;;;;;;;;;;;;;;5047396;28;20389;-84
2023/02/08 14:17:15;;;;;;;;;;;;;;;;;;5048740;28;20337;-86
2023/02/08 14:19:41;;;;;;;;;;;;;;;;;;5047538;28;19937;-86
2023/02/08 14:22:06;;;;;;;;;;;;;;;;;;5049147;28;19979;-83
2023/02/08 14:24:35;;;;;;;;;;;;;;;;;;5048885;28;20028;-84
2023/02/08 14:27:00;;;;;;;;;;;;;;;;;;5050754;28;19909;-84
2023/02/08 14:29:26;;;;;;;;;;;;;;;;;;5047910;28;20278;-84
2023/02/08 14:31:51;;;;;;;;;;;;;;;;;;5049247;28;19990;-84
2023/02/08 14:34:16;;;;;;;;;;;;;;;;;;5050256;28;19913;-86
2023/02/08 14:36:41;;;;;;;;;;;;;;;;;;5047754;28;20304;-86
2023/02/08 14:39:06;;;;;;;;;;;;;;;;;;5049747;28;20421;-85
2023/02/08 14:41:31;;;;;;;;;;;;;;;;;;5040853;28;19917;-86
2023/02/08 14:43:56;;;;;;;;;;;;;;;;;;5042404;28;19917;-83
2023/02/08 14:46:21;;;;;;;;;;;;;;;;;;5048729;28;19951;-85
2023/02/08 14:48:47;;;;;;;;;;;;;;;;;;5048752;28;19960;-84
2023/02/08 14:51:12;;;;;;;;;;;;;;;;;;5049750;28;19913;-85
2023/02/08 14:53:37;;;;;;;;;;;;;;;;;;5048617;28;19917;-84
2023/02/08 14:56:02;;;;;;;;;;;;;;;;;;5049322;28;19995;-85
2023/02/08 14:58:27;;;;;;;;;;;;;;;;;;5049284;28;20047;-85
2023/02/08 15:00:52;;;;;;;;;;;;;;;;;;5047383;28;19913;-84
2023/02/08 15:03:18;;;;;;;;;;;;;;;;;;5047849;28;19913;-84
2023/02/08 15:05:43;;;;;;;;;;;;;;;;;;5062107;28;19922;-85
2023/02/08 15:08:08;;;;;;;;;;;;;;;;;;5041409;28;20003;-83
2023/02/08 15:10:34;;;;;;;;;;;;;;;;;;5038273;28;19913;-86
2023/02/08 15:13:02;;;;;;;;;;;;;;;;;;5047393;28;20243;-85
2023/02/08 15:15:27;;;;;;;;;;;;;;;;;;5042142;28;19921;-87
2023/02/08 15:17:52;;;;;;;;;;;;;;;;;;5046824;28;20361;-88
2023/02/08 15:20:17;;;;;;;;;;;;;;;;;;5049767;28;19912;-88
2023/02/08 15:22:43;;;;;;;;;;;;;;;;;;5045011;28;20043;-85
2023/02/08 15:25:08;;;;;;;;;;;;;;;;;;5043703;28;20384;-87
2023/02/08 15:27:33;;;;;;;;;;;;;;;;;;5042743;28;19973;-84
2023/02/08 15:29:58;;;;;;;;;;;;;;;;;;5037521;28;20503;-85
2023/02/08 15:32:23;;;;;;;;;;;;;;;;;;5046403;28;20486;-85
2023/02/08 15:34:48;;;;;;;;;;;;;;;;;;5047568;28;20403;-85
2023/02/08 15:37:13;;;;;;;;;;;;;;;;;;5047322;28;19928;-85
2023/02/08 15:39:38;;;;;;;;;;;;;;;;;;5045923;28;19967;-85
2023/02/08 15:42:04;;;;;;;;;;;;;;;;;;5044306;28;19917;-85
2023/02/08 15:44:29;;;;;;;;;;;;;;;;;;5049254;28;20019;-86
2023/02/08 15:46:54;;;;;;;;;;;;;;;;;;5049429;28;20004;-85
2023/02/08 15:49:20;;;;;;;;;;;;;;;;;;5047770;28;19917;-85
2023/02/08 15:51:45;;;;;;;;;;;;;;;;;;5046725;28;20022;-85
2023/02/08 15:54:11;;;;;;;;;;;;;;;;;;5047578;28;19952;-84
2023/02/08 15:56:36;;;;;;;;;;;;;;;;;;5042476;28;19913;-87
2023/02/08 15:59:01;;;;;;;;;;;;;;;;;;5039415;28;19913;-85
2023/02/08 16:01:26;;;;;;;;;;;;;;;;;;5046760;28;20395;-86
2023/02/08 16:03:51;;;;;;;;;;;;;;;;;;5042084;28;19913;-85
2023/02/08 16:06:16;;;;;;;;;;;;;;;;;;5039475;28;20350;-85
2023/02/08 16:08:42;;;;;;;;;;;;;;;;;;5041826;28;19920;-84
2023/02/08 16:11:07;;;;;;;;;;;;;;;;;;5042404;28;19970;-84
2023/02/08 16:13:33;;;;;;;;;;;;;;;;;;5046581;28;20366;-84
2023/02/08 16:15:59;;;;;;;;;;;;;;;;;;5059278;28;20007;-84
2023/02/08 16:18:25;;;;;;;;;;;;;;;;;;5044733;28;19920;-83
2023/02/08 16:20:50;;;;;;;;;;;;;;;;;;5045511;28;19921;-81
2023/02/08 16:23:15;;;;;;;;;;;;;;;;;;5043590;28;19913;-83
2023/02/08 16:25:40;;;;;;;;;;;;;;;;;;5043516;28;19917;-85
2023/02/08 16:28:05;;;;;;;;;;;;;;;;;;5043123;28;19916;-86
2023/02/08 16:30:31;;;;;;;;;;;;;;;;;;5042243;28;20277;-85
2023/02/08 16:32:56;;;;;;;;;;;;;;;;;;5042031;28;19916;-86
2023/02/08 16:35:21;;;;;;;;;;;;;;;;;;5047012;28;19921;-86
2023/02/08 16:37:46;;;;;;;;;;;;;;;;;;5042686;28;20451;-80
2023/02/08 16:40:14;;;;;;;;;;;;;;;;;;5040558;28;20374;-83